sensor_id;sensor_type;location;lat;lon;timestamp;pressure;altitude;pressure_sealevel;temperature;humidity
7662;BME280;30314;48.184;11.510;2023-02-25T00:02:12;94599.31;;;2.12;100.00
7662;BME280;30314;48.184;11.510;2023-02-25T00:04:39;94605.56;;;2.16;100.00
7662;BME280;30314;48.184;11.510;2023-02-25T00:07:07;94612.59;;;2.20;100.00
7662;BME280;30314;48.184;11.510;2023-02-25T00:09:34;94597.75;;;2.00;100.00
7662;BME280;30314;48.184;11.510;2023-02-25T00:12:00;94612.59;;;2.20;100.00
7662;BME280;30314;48.184;11.510;2023-02-25T00:14:27;94577.72;;;1.95;100.00
7662;BME280;30314;48.184;11.510;2023-02-25T00:16:54;94589.66;;;2.02;100.00
7662;BME280;30314;48.184;11.510;2023-02-25T00:19:24;94616.22;;;2.14;100.00
7662;BME280;30314;48.184;11.510;2023-02-25T00:21:50;94603.22;;;1.99;100.00
7662;BME280;30314;48.184;11.510;2023-02-25T00:24:17;94605.06;;;1.88;100.00
7662;BME280;30314;48.184;11.510;2023-02-25T00:26:44;94602.69;;;1.76;100.00
7662;BME280;30314;48.184;11.510;2023-02-25T00:29:13;94610.25;;;1.77;100.00
7662;BME280;30314;48.184;11.510;2023-02-25T00:31:39;94627.16;;;1.75;100.00
7662;BME280;30314;48.184;11.510;2023-02-25T00:34:07;94621.69;;;1.66;100.00
7662;BME280;30314;48.184;11.510;2023-02-25T00:36:34;94625.63;;;1.68;100.00
7662;BME280;30314;48.184;11.510;2023-02-25T00:39:00;94630.81;;;1.63;100.00
7662;BME280;30314;48.184;11.510;2023-02-25T00:41:28;94642.81;;;1.85;100.00
7662;BME280;30314;48.184;11.510;2023-02-25T00:43:58;94641.75;;;1.86;100.00
7662;BME280;30314;48.184;11.510;2023-02-25T00:46:25;94647.75;;;1.71;100.00
7662;BME280;30314;48.184;11.510;2023-02-25T00:48:52;94631.06;;;1.51;100.00
7662;BME280;30314;48.184;11.510;2023-02-25T00:51:25;94638.63;;;1.53;100.00
7662;BME280;30314;48.184;11.510;2023-02-25T00:53:53;94647.47;;;1.57;100.00
7662;BME280;30314;48.184;11.510;2023-02-25T00:56:22;94635.19;;;1.42;100.00
7662;BME280;30314;48.184;11.510;2023-02-25T00:58:50;94652.63;;;1.47;100.00
7662;BME280;30314;48.184;11.510;2023-02-25T01:03:50;94656.28;;;1.46;100.00
7662;BME280;30314;48.184;11.510;2023-02-25T01:06:17;94654.22;;;1.58;100.00
7662;BME280;30314;48.184;11.510;2023-02-25T01:08:44;94655.25;;;1.42;100.00
7662;BME280;30314;48.184;11.510;2023-02-25T01:11:16;94652.16;;;1.55;100.00
7662;BME280;30314;48.184;11.510;2023-02-25T01:13:54;94647.69;;;1.40;100.00
7662;BME280;30314;48.184;11.510;2023-02-25T01:16:23;94667.22;;;1.53;100.00
7662;BME280;30314;48.184;11.510;2023-02-25T01:18:53;94673.44;;;1.36;100.00
7662;BME280;30314;48.184;11.510;2023-02-25T01:21:30;94666.13;;;1.33;100.00
7662;BME280;30314;48.184;11.510;2023-02-25T01:24:03;94685.13;;;1.34;100.00
7662;BME280;30314;48.184;11.510;2023-02-25T01:26:33;94662.25;;;1.31;100.00
7662;BME280;30314;48.184;11.510;2023-02-25T01:28:59;94631.72;;;1.05;100.00
7662;BME280;30314;48.184;11.510;2023-02-25T01:31:26;94679.66;;;1.30;100.00
7662;BME280;30314;48.184;11.510;2023-02-25T01:33:58;94663.25;;;1.19;100.00
7662;BME280;30314;48.184;11.510;2023-02-25T01:36:26;94650.94;;;0.99;100.00
7662;BME280;30314;48.184;11.510;2023-02-25T01:38:55;94675.50;;;1.24;100.00
7662;BME280;30314;48.184;11.510;2023-02-25T01:41:23;94673.34;;;1.10;100.00
7662;BME280;30314;48.184;11.510;2023-02-25T01:44:14;94673.88;;;1.13;100.00
7662;BME280;30314;48.184;11.510;2023-02-25T01:46:45;94656.38;;;0.97;100.00
7662;BME280;30314;48.184;11.510;2023-02-25T01:49:31;94675.91;;;1.05;100.00
7662;BME280;30314;48.184;11.510;2023-02-25T01:52:05;94677.53;;;1.11;100.00
7662;BME280;30314;48.184;11.510;2023-02-25T01:54:35;94670.47;;;1.07;100.00
7662;BME280;30314;48.184;11.510;2023-02-25T01:57:05;94668.69;;;1.13;100.00
7662;BME280;30314;48.184;11.510;2023-02-25T01:59:33;94659.84;;;1.14;100.00
7662;BME280;30314;48.184;11.510;2023-02-25T02:02:01;94672.03;;;1.08;100.00
7662;BME280;30314;48.184;11.510;2023-02-25T02:04:29;94656.66;;;1.01;100.00
7662;BME280;30314;48.184;11.510;2023-02-25T02:06:57;94650.94;;;0.99;100.00
7662;BME280;30314;48.184;11.510;2023-02-25T02:09:26;94682.97;;;1.15;100.00
7662;BME280;30314;48.184;11.510;2023-02-25T02:11:58;94651.44;;;0.96;100.00
7662;BME280;30314;48.184;11.510;2023-02-25T02:14:29;94660.81;;;0.97;100.00
7662;BME280;30314;48.184;11.510;2023-02-25T02:17:19;94676.94;;;0.99;100.00
7662;BME280;30314;48.184;11.510;2023-02-25T02:22:34;94669.09;;;0.94;100.00
7662;BME280;30314;48.184;11.510;2023-02-25T02:33:03;94677.97;;;0.98;100.00
7662;BME280;30314;48.184;11.510;2023-02-25T02:35:55;94660.78;;;0.87;100.00
7662;BME280;30314;48.184;11.510;2023-02-25T02:38:32;94676.91;;;0.94;100.00
7662;BME280;30314;48.184;11.510;2023-02-25T02:41:16;94670.13;;;0.88;100.00
7662;BME280;30314;48.184;11.510;2023-02-25T02:44:04;94681.34;;;0.93;100.00
7662;BME280;30314;48.184;11.510;2023-02-25T02:46:44;94675.78;;;0.79;100.00
7662;BME280;30314;48.184;11.510;2023-02-25T02:49:16;94685.97;;;0.86;100.00
7662;BME280;30314;48.184;11.510;2023-02-25T02:52:01;94686.19;;;0.74;100.00
7662;BME280;30314;48.184;11.510;2023-02-25T02:54:35;94669.78;;;0.68;100.00
7662;BME280;30314;48.184;11.510;2023-02-25T02:57:04;94655.28;;;0.78;100.00
7662;BME280;30314;48.184;11.510;2023-02-25T02:59:42;94660.72;;;0.76;100.00
7662;BME280;30314;48.184;11.510;2023-02-25T03:02:16;94679.22;;;0.85;100.00
7662;BME280;30314;48.184;11.510;2023-02-25T03:04:46;94662.00;;;0.74;100.00
7662;BME280;30314;48.184;11.510;2023-02-25T03:07:14;94681.06;;;0.95;100.00
7662;BME280;30314;48.184;11.510;2023-02-25T03:09:52;94675.78;;;0.79;100.00
7662;BME280;30314;48.184;11.510;2023-02-25T03:12:21;94684.41;;;0.80;100.00
7662;BME280;30314;48.184;11.510;2023-02-25T03:14:48;94658.63;;;0.78;100.00
7662;BME280;30314;48.184;11.510;2023-02-25T03:17:21;94662.84;;;0.90;100.00
7662;BME280;30314;48.184;11.510;2023-02-25T03:20:18;94690.66;;;0.89;100.00
7662;BME280;30314;48.184;11.510;2023-02-25T03:22:47;94692.22;;;0.85;100.00
7662;BME280;30314;48.184;11.510;2023-02-25T03:25:40;94678.44;;;0.85;100.00
7662;BME280;30314;48.184;11.510;2023-02-25T03:33:36;94681.22;;;0.73;100.00
7662;BME280;30314;48.184;11.510;2023-02-25T03:36:09;94697.69;;;0.89;100.00
7662;BME280;30314;48.184;11.510;2023-02-25T03:38:42;94701.84;;;0.85;100.00
7662;BME280;30314;48.184;11.510;2023-02-25T03:41:11;94700.81;;;0.91;100.00
7662;BME280;30314;48.184;11.510;2023-02-25T03:43:47;94685.72;;;0.88;100.00
7662;BME280;30314;48.184;11.510;2023-02-25T03:46:16;94685.97;;;0.86;100.00
7662;BME280;30314;48.184;11.510;2023-02-25T03:48:45;94691.53;;;1.05;100.00
7662;BME280;30314;48.184;11.510;2023-02-25T03:51:17;94698.97;;;0.86;100.00
7662;BME280;30314;48.184;11.510;2023-02-25T03:53:45;94688.78;;;0.79;100.00
7662;BME280;30314;48.184;11.510;2023-02-25T03:56:17;94681.25;;;0.78;100.00
7662;BME280;30314;48.184;11.510;2023-02-25T03:58:44;94701.34;;;0.93;100.00
7662;BME280;30314;48.184;11.510;2023-02-25T04:01:14;94692.78;;;0.92;100.00
7662;BME280;30314;48.184;11.510;2023-02-25T04:03:43;94706.53;;;0.93;100.00
7662;BME280;30314;48.184;11.510;2023-02-25T04:06:13;94723.00;;;1.04;100.00
7662;BME280;30314;48.184;11.510;2023-02-25T04:08:40;94700.31;;;0.94;100.00
7662;BME280;30314;48.184;11.510;2023-02-25T04:11:07;94704.69;;;0.83;100.00
7662;BME280;30314;48.184;11.510;2023-02-25T04:13:33;94718.25;;;0.95;100.00
7662;BME280;30314;48.184;11.510;2023-02-25T04:16:00;94718.78;;;0.97;100.00
7662;BME280;30314;48.184;11.510;2023-02-25T04:18:26;94730.00;;;1.08;100.00
7662;BME280;30314;48.184;11.510;2023-02-25T04:20:53;94730.75;;;0.98;100.00
7662;BME280;30314;48.184;11.510;2023-02-25T04:23:20;94720.06;;;0.95;100.00
7662;BME280;30314;48.184;11.510;2023-02-25T04:25:46;94720.06;;;0.95;100.00
7662;BME280;30314;48.184;11.510;2023-02-25T04:28:13;94706.47;;;0.82;100.00
7662;BME280;30314;48.184;11.510;2023-02-25T04:30:39;94714.88;;;0.95;100.00
7662;BME280;30314;48.184;11.510;2023-02-25T04:33:06;94709.66;;;0.90;100.00
7662;BME280;30314;48.184;11.510;2023-02-25T04:35:32;94720.03;;;0.85;100.00
7662;BME280;30314;48.184;11.510;2023-02-25T04:37:59;94734.91;;;1.00;100.00
7662;BME280;30314;48.184;11.510;2023-02-25T04:40:25;94717.38;;;0.79;100.00
7662;BME280;30314;48.184;11.510;2023-02-25T04:42:52;94713.28;;;0.89;100.00
7662;BME280;30314;48.184;11.510;2023-02-25T04:45:19;94736.25;;;1.02;100.00
7662;BME280;30314;48.184;11.510;2023-02-25T04:47:55;94731.78;;;0.97;100.00
7662;BME280;30314;48.184;11.510;2023-02-25T04:50:23;94729.97;;;0.98;100.00
7662;BME280;30314;48.184;11.510;2023-02-25T04:52:50;94715.28;;;0.71;100.00
7662;BME280;30314;48.184;11.510;2023-02-25T04:55:17;94734.59;;;0.86;100.00
7662;BME280;30314;48.184;11.510;2023-02-25T04:57:43;94721.06;;;0.83;100.00
7662;BME280;30314;48.184;11.510;2023-02-25T05:00:19;94724.69;;;0.82;100.00
7662;BME280;30314;48.184;11.510;2023-02-25T05:02:47;94740.63;;;1.02;100.00
7662;BME280;30314;48.184;11.510;2023-02-25T05:05:14;94744.78;;;0.97;100.00
7662;BME280;30314;48.184;11.510;2023-02-25T05:07:41;94716.34;;;0.75;100.00
7662;BME280;30314;48.184;11.510;2023-02-25T05:10:10;94748.19;;;0.98;100.00
7662;BME280;30314;48.184;11.510;2023-02-25T05:12:37;94733.03;;;0.90;100.00
7662;BME280;30314;48.184;11.510;2023-02-25T05:15:04;94736.97;;;0.92;100.00
7662;BME280;30314;48.184;11.510;2023-02-25T05:17:31;94748.41;;;0.91;100.00
7662;BME280;30314;48.184;11.510;2023-02-25T05:19:58;94737.13;;;0.75;100.00
7662;BME280;30314;48.184;11.510;2023-02-25T05:22:26;94752.56;;;0.92;100.00
7662;BME280;30314;48.184;11.510;2023-02-25T05:24:53;94753.91;;;1.00;100.00
7662;BME280;30314;48.184;11.510;2023-02-25T05:27:19;94760.63;;;0.96;100.00
7662;BME280;30314;48.184;11.510;2023-02-25T05:29:46;94776.81;;;1.03;100.00
7662;BME280;30314;48.184;11.510;2023-02-25T05:32:12;94750.28;;;1.01;100.00
7662;BME280;30314;48.184;11.510;2023-02-25T05:34:39;94761.13;;;0.93;100.00
7662;BME280;30314;48.184;11.510;2023-02-25T05:37:07;94767.72;;;1.06;100.00
7662;BME280;30314;48.184;11.510;2023-02-25T05:39:33;94784.41;;;1.15;100.00
7662;BME280;30314;48.184;11.510;2023-02-25T05:42:00;94754.38;;;0.92;100.00
7662;BME280;30314;48.184;11.510;2023-02-25T05:44:26;94774.13;;;0.93;100.00
7662;BME280;30314;48.184;11.510;2023-02-25T05:46:53;94777.84;;;1.07;100.00
7662;BME280;30314;48.184;11.510;2023-02-25T05:49:19;94776.28;;;1.01;100.00
7662;BME280;30314;48.184;11.510;2023-02-25T05:51:47;94758.03;;;0.96;100.00
7662;BME280;30314;48.184;11.510;2023-02-25T05:54:14;94769.00;;;1.03;100.00
7662;BME280;30314;48.184;11.510;2023-02-25T05:56:40;94736.84;;;0.72;100.00
7662;BME280;30314;48.184;11.510;2023-02-25T05:59:08;94776.28;;;1.01;100.00
7662;BME280;30314;48.184;11.510;2023-02-25T06:01:34;94781.97;;;0.98;100.00
7662;BME280;30314;48.184;11.510;2023-02-25T06:04:01;94793.44;;;1.02;100.00
7662;BME280;30314;48.184;11.510;2023-02-25T06:06:29;94799.41;;;1.03;100.00
7662;BME280;30314;48.184;11.510;2023-02-25T06:08:56;94795.59;;;1.10;100.00
7662;BME280;30314;48.184;11.510;2023-02-25T06:11:28;94805.25;;;1.20;100.00
7662;BME280;30314;48.184;11.510;2023-02-25T06:13:55;94805.47;;;1.14;100.00
7662;BME280;30314;48.184;11.510;2023-02-25T06:16:23;94809.56;;;1.04;100.00
7662;BME280;30314;48.184;11.510;2023-02-25T06:18:59;94796.81;;;1.03;100.00
7662;BME280;30314;48.184;11.510;2023-02-25T06:21:26;94794.72;;;1.00;100.00
7662;BME280;30314;48.184;11.510;2023-02-25T06:23:53;94810.69;;;1.14;100.00
7662;BME280;30314;48.184;11.510;2023-02-25T06:26:20;94821.09;;;1.14;100.00
7662;BME280;30314;48.184;11.510;2023-02-25T06:28:47;94811.41;;;1.04;100.00
7662;BME280;30314;48.184;11.510;2023-02-25T06:31:16;94815.38;;;1.17;100.00
7662;BME280;30314;48.184;11.510;2023-02-25T06:33:43;94822.72;;;1.25;100.00
7662;BME280;30314;48.184;11.510;2023-02-25T06:36:11;94822.94;;;1.23;100.00
7662;BME280;30314;48.184;11.510;2023-02-25T06:38:38;94789.81;;;1.03;100.00
7662;BME280;30314;48.184;11.510;2023-02-25T06:41:11;94834.69;;;1.26;100.00
7662;BME280;30314;48.184;11.510;2023-02-25T06:43:39;94812.19;;;1.09;100.00
7662;BME280;30314;48.184;11.510;2023-02-25T06:46:08;94840.16;;;1.30;100.00
7662;BME280;30314;48.184;11.510;2023-02-25T06:48:35;94815.38;;;1.17;100.00
7662;BME280;30314;48.184;11.510;2023-02-25T06:51:02;94833.94;;;1.36;100.00
7662;BME280;30314;48.184;11.510;2023-02-25T06:53:30;94819.56;;;1.23;100.00
7662;BME280;30314;48.184;11.510;2023-02-25T06:55:57;94832.91;;;1.32;100.00
7662;BME280;30314;48.184;11.510;2023-02-25T06:58:23;94839.38;;;1.29;100.00
7662;BME280;30314;48.184;11.510;2023-02-25T07:00:50;94827.91;;;1.25;100.00
7662;BME280;30314;48.184;11.510;2023-02-25T07:03:16;94815.13;;;1.18;100.00
7662;BME280;30314;48.184;11.510;2023-02-25T07:05:43;94830.00;;;1.28;100.00
7662;BME280;30314;48.184;11.510;2023-02-25T07:08:10;94843.91;;;1.54;100.00
7662;BME280;30314;48.184;11.510;2023-02-25T07:10:36;94847.25;;;1.39;100.00
7662;BME280;30314;48.184;11.510;2023-02-25T07:13:06;94832.38;;;1.35;100.00
7662;BME280;30314;48.184;11.510;2023-02-25T07:15:34;94844.13;;;1.43;100.00
7662;BME280;30314;48.184;11.510;2023-02-25T07:18:01;94849.34;;;1.48;100.00
7662;BME280;30314;48.184;11.510;2023-02-25T07:20:29;94837.06;;;1.38;100.00
7662;BME280;30314;48.184;11.510;2023-02-25T07:22:55;94847.25;;;1.45;100.00
7662;BME280;30314;48.184;11.510;2023-02-25T07:25:22;94837.88;;;1.38;100.00
7662;BME280;30314;48.184;11.510;2023-02-25T07:27:48;94821.25;;;1.45;100.00
7662;BME280;30314;48.184;11.510;2023-02-25T07:30:15;94830.66;;;1.51;100.00
7662;BME280;30314;48.184;11.510;2023-02-25T07:32:42;94832.66;;;1.38;100.00
7662;BME280;30314;48.184;11.510;2023-02-25T07:35:09;94832.16;;;1.42;100.00
7662;BME280;30314;48.184;11.510;2023-02-25T07:37:35;94821.19;;;1.34;100.00
7662;BME280;30314;48.184;11.510;2023-02-25T07:40:04;94841.59;;;1.58;100.00
7662;BME280;30314;48.184;11.510;2023-02-25T07:42:39;94838.69;;;1.49;100.00
7662;BME280;30314;48.184;11.510;2023-02-25T07:45:08;94846.28;;;1.56;100.00
7662;BME280;30314;48.184;11.510;2023-02-25T07:47:35;94839.00;;;1.58;100.00
7662;BME280;30314;48.184;11.510;2023-02-25T07:50:04;94847.09;;;1.67;100.00
7662;BME280;30314;48.184;11.510;2023-02-25T07:52:30;94841.66;;;1.63;100.00
7662;BME280;30314;48.184;11.510;2023-02-25T07:54:57;94837.91;;;1.49;100.00
7662;BME280;30314;48.184;11.510;2023-02-25T07:57:24;94833.19;;;1.40;100.00
7662;BME280;30314;48.184;11.510;2023-02-25T07:59:50;94839.00;;;1.58;100.00
7662;BME280;30314;48.184;11.510;2023-02-25T08:02:17;94829.16;;;1.65;100.00
7662;BME280;30314;48.184;11.510;2023-02-25T08:04:43;94843.78;;;1.82;100.00
7662;BME280;30314;48.184;11.510;2023-02-25T08:07:10;94838.88;;;1.86;100.00
7662;BME280;30314;48.184;11.510;2023-02-25T08:09:36;94821.94;;;1.83;100.00
7662;BME280;30314;48.184;11.510;2023-02-25T08:12:03;94805.75;;;1.76;100.00
7662;BME280;30314;48.184;11.510;2023-02-25T08:14:30;94823.25;;;1.86;100.00
7662;BME280;30314;48.184;11.510;2023-02-25T08:16:56;94821.38;;;1.76;100.00
7662;BME280;30314;48.184;11.510;2023-02-25T08:19:23;94817.19;;;1.64;100.00
7662;BME280;30314;48.184;11.510;2023-02-25T08:21:49;94815.16;;;1.82;100.00
7662;BME280;30314;48.184;11.510;2023-02-25T08:24:16;94827.69;;;1.95;100.00
7662;BME280;30314;48.184;11.510;2023-02-25T08:26:46;94826.69;;;2.07;100.00
7662;BME280;30314;48.184;11.510;2023-02-25T08:29:13;94807.09;;;1.84;100.00
7662;BME280;30314;48.184;11.510;2023-02-25T08:31:40;94777.66;;;1.78;100.00
7662;BME280;30314;48.184;11.510;2023-02-25T08:34:07;94816.56;;;2.10;100.00
7662;BME280;30314;48.184;11.510;2023-02-25T08:36:33;94816.59;;;2.26;100.00
7662;BME280;30314;48.184;11.510;2023-02-25T08:39:01;94821.75;;;2.16;100.00
7662;BME280;30314;48.184;11.510;2023-02-25T08:41:28;94829.81;;;2.14;100.00
7662;BME280;30314;48.184;11.510;2023-02-25T08:43:56;94837.69;;;2.30;100.00
7662;BME280;30314;48.184;11.510;2023-02-25T08:46:26;94798.81;;;2.07;100.00
7662;BME280;30314;48.184;11.510;2023-02-25T08:48:53;94825.66;;;2.13;100.00
7662;BME280;30314;48.184;11.510;2023-02-25T08:51:22;94841.88;;;2.31;100.00
7662;BME280;30314;48.184;11.510;2023-02-25T08:53:49;94784.19;;;1.96;100.00
7662;BME280;30314;48.184;11.510;2023-02-25T08:56:16;94835.09;;;2.30;100.00
7662;BME280;30314;48.184;11.510;2023-02-25T08:58:42;94821.75;;;2.21;100.00
7662;BME280;30314;48.184;11.510;2023-02-25T09:01:14;94824.38;;;2.21;100.00
7662;BME280;30314;48.184;11.510;2023-02-25T09:03:42;94840.31;;;2.30;100.00
7662;BME280;30314;48.184;11.510;2023-02-25T09:06:24;94842.88;;;2.24;100.00
7662;BME280;30314;48.184;11.510;2023-02-25T09:08:54;94832.91;;;2.01;100.00
7662;BME280;30314;48.184;11.510;2023-02-25T09:11:24;94836.59;;;2.05;100.00
7662;BME280;30314;48.184;11.510;2023-02-25T09:13:53;94840.78;;;2.16;100.00
7662;BME280;30314;48.184;11.510;2023-02-25T09:16:20;94819.38;;;1.99;100.00
7662;BME280;30314;48.184;11.510;2023-02-25T09:18:48;94836.03;;;1.97;100.00
7662;BME280;30314;48.184;11.510;2023-02-25T09:21:17;94844.41;;;2.05;100.00
7662;BME280;30314;48.184;11.510;2023-02-25T09:23:44;94855.81;;;1.99;100.00
7662;BME280;30314;48.184;11.510;2023-02-25T09:26:12;94861.59;;;2.06;100.00
7662;BME280;30314;48.184;11.510;2023-02-25T09:28:39;94861.03;;;1.99;100.00
7662;BME280;30314;48.184;11.510;2023-02-25T09:31:05;94844.88;;;2.02;100.00
7662;BME280;30314;48.184;11.510;2023-02-25T09:33:33;94848.81;;;2.04;100.00
7662;BME280;30314;48.184;11.510;2023-02-25T09:36:13;94843.59;;;1.99;100.00
7662;BME280;30314;48.184;11.510;2023-02-25T09:38:41;94843.38;;;2.11;100.00
7662;BME280;30314;48.184;11.510;2023-02-25T09:42:05;94811.28;;;1.95;100.00
7662;BME280;30314;48.184;11.510;2023-02-25T09:44:11;94832.72;;;2.23;100.00
7662;BME280;30314;48.184;11.510;2023-02-25T09:46:55;94842.13;;;2.29;100.00
7662;BME280;30314;48.184;11.510;2023-02-25T09:49:45;94823.09;;;2.39;100.00
7662;BME280;30314;48.184;11.510;2023-02-25T09:52:28;94832.47;;;2.40;100.00
7662;BME280;30314;48.184;11.510;2023-02-25T09:57:26;94818.13;;;2.27;100.00
7662;BME280;30314;48.184;11.510;2023-02-25T09:59:54;94776.69;;;2.15;100.00
7662;BME280;30314;48.184;11.510;2023-02-25T10:05:25;94829.91;;;2.61;100.00
7662;BME280;30314;48.184;11.510;2023-02-25T10:08:11;94824.16;;;2.64;100.00
7662;BME280;30314;48.184;11.510;2023-02-25T10:10:50;94827.84;;;2.73;100.00
7662;BME280;30314;48.184;11.510;2023-02-25T10:13:48;94829.91;;;2.97;100.00
7662;BME280;30314;48.184;11.510;2023-02-25T10:22:10;94832.25;;;3.04;100.00
7662;BME280;30314;48.184;11.510;2023-02-25T10:24:49;94830.97;;;2.86;100.00
7662;BME280;30314;48.184;11.510;2023-02-25T10:27:28;94830.97;;;2.86;100.00
7662;BME280;30314;48.184;11.510;2023-02-25T10:30:14;94829.63;;;2.99;100.00
7662;BME280;30314;48.184;11.510;2023-02-25T10:32:43;94821.56;;;3.00;100.00
7662;BME280;30314;48.184;11.510;2023-02-25T10:35:27;94793.41;;;2.92;100.00
7662;BME280;30314;48.184;11.510;2023-02-25T10:37:54;94822.34;;;3.01;100.00
7662;BME280;30314;48.184;11.510;2023-02-25T10:40:22;94812.97;;;2.89;100.00
7662;BME280;30314;48.184;11.510;2023-02-25T10:42:59;94829.91;;;2.92;100.00
7662;BME280;30314;48.184;11.510;2023-02-25T10:45:29;94825.22;;;3.04;99.37
7662;BME280;30314;48.184;11.510;2023-02-25T10:48:05;94826.50;;;3.02;100.00
7662;BME280;30314;48.184;11.510;2023-02-25T10:50:32;94822.38;;;2.90;100.00
7662;BME280;30314;48.184;11.510;2023-02-25T10:53:16;94811.66;;;3.02;100.00
7662;BME280;30314;48.184;11.510;2023-02-25T10:58:30;94786.88;;;2.94;100.00
7662;BME280;30314;48.184;11.510;2023-02-25T11:01:05;94807.97;;;3.14;100.00
7662;BME280;30314;48.184;11.510;2023-02-25T11:06:19;94792.88;;;2.95;98.58
7662;BME280;30314;48.184;11.510;2023-02-25T11:08:49;94794.19;;;2.92;97.46
7662;BME280;30314;48.184;11.510;2023-02-25T11:11:19;94758.75;;;2.45;100.00
7662;BME280;30314;48.184;11.510;2023-02-25T11:14:16;94763.19;;;2.60;100.00
7662;BME280;30314;48.184;11.510;2023-02-25T11:16:44;94777.25;;;2.74;100.00
7662;BME280;30314;48.184;11.510;2023-02-25T11:19:24;94787.94;;;2.78;100.00
7662;BME280;30314;48.184;11.510;2023-02-25T11:21:52;94782.94;;;3.02;100.00
7662;BME280;30314;48.184;11.510;2023-02-25T11:24:33;94785.56;;;3.13;100.00
7662;BME280;30314;48.184;11.510;2023-02-25T11:27:03;94784.00;;;3.01;100.00
7662;BME280;30314;48.184;11.510;2023-02-25T11:29:39;94788.69;;;3.09;100.00
7662;BME280;30314;48.184;11.510;2023-02-25T11:32:16;94780.09;;;3.04;100.00
7662;BME280;30314;48.184;11.510;2023-02-25T11:34:46;94781.34;;;3.17;100.00
7662;BME280;30314;48.184;11.510;2023-02-25T11:40:19;94767.03;;;2.99;99.60
7662;BME280;30314;48.184;11.510;2023-02-25T11:43:13;94776.91;;;3.22;100.00
7662;BME280;30314;48.184;11.510;2023-02-25T11:48:28;94757.13;;;3.06;100.00
7662;BME280;30314;48.184;11.510;2023-02-25T11:53:56;94751.38;;;2.99;100.00
7662;BME280;30314;48.184;11.510;2023-02-25T11:56:35;94751.13;;;3.05;100.00
7662;BME280;30314;48.184;11.510;2023-02-25T12:02:23;94738.28;;;3.24;100.00
7662;BME280;30314;48.184;11.510;2023-02-25T12:05:07;94736.31;;;3.61;98.31
7662;BME280;30314;48.184;11.510;2023-02-25T12:07:52;94723.66;;;3.89;94.92
7662;BME280;30314;48.184;11.510;2023-02-25T12:11:16;94725.06;;;4.11;95.63
7662;BME280;30314;48.184;11.510;2023-02-25T12:17:54;94727.72;;;4.41;91.64
7662;BME280;30314;48.184;11.510;2023-02-25T12:25:47;94739.78;;;4.02;86.26
7662;BME280;30314;48.184;11.510;2023-02-25T12:28:39;94744.09;;;4.22;91.50
7662;BME280;30314;48.184;11.510;2023-02-25T12:31:46;94747.88;;;3.95;84.04
7662;BME280;30314;48.184;11.510;2023-02-25T12:37:29;94743.31;;;3.71;88.89
7662;BME280;30314;48.184;11.510;2023-02-25T12:51:03;94748.28;;;3.73;83.81
7662;BME280;30314;48.184;11.510;2023-02-25T12:57:07;94737.06;;;3.72;81.22
7662;BME280;30314;48.184;11.510;2023-02-25T13:00:13;94733.59;;;3.82;86.72
7662;BME280;30314;48.184;11.510;2023-02-25T13:03:02;94741.47;;;3.77;90.92
7662;BME280;30314;48.184;11.510;2023-02-25T13:09:19;94725.66;;;3.52;79.92
7662;BME280;30314;48.184;11.510;2023-02-25T13:14:56;94723.94;;;3.83;82.81
7662;BME280;30314;48.184;11.510;2023-02-25T13:17:34;94713.88;;;4.05;75.22
7662;BME280;30314;48.184;11.510;2023-02-25T13:23:24;94726.25;;;4.29;73.20
7662;BME280;30314;48.184;11.510;2023-02-25T13:26:15;94724.31;;;4.40;74.67
7662;BME280;30314;48.184;11.510;2023-02-25T13:31:20;94705.88;;;4.61;71.38
7662;BME280;30314;48.184;11.510;2023-02-25T13:39:27;94725.34;;;4.44;78.19
7662;BME280;30314;48.184;11.510;2023-02-25T13:42:26;94731.03;;;4.17;75.33
7662;BME280;30314;48.184;11.510;2023-02-25T13:47:43;94734.47;;;4.12;72.54
7662;BME280;30314;48.184;11.510;2023-02-25T13:53:09;94720.44;;;3.98;74.80
7662;BME280;30314;48.184;11.510;2023-02-25T13:58:50;94736.03;;;4.13;81.96
7662;BME280;30314;48.184;11.510;2023-02-25T14:07:35;94734.81;;;4.00;75.48
7662;BME280;30314;48.184;11.510;2023-02-25T14:15:57;94742.56;;;3.65;74.99
7662;BME280;30314;48.184;11.510;2023-02-25T14:18:44;94749.34;;;3.61;81.43
7662;BME280;30314;48.184;11.510;2023-02-25T14:21:40;94731.41;;;3.49;85.44
7662;BME280;30314;48.184;11.510;2023-02-25T14:24:22;94755.13;;;3.63;77.25
7662;BME280;30314;48.184;11.510;2023-02-25T14:27:22;94755.16;;;3.53;83.18
7662;BME280;30314;48.184;11.510;2023-02-25T14:38:13;94761.41;;;3.57;76.06
7662;BME280;30314;48.184;11.510;2023-02-25T14:43:45;94761.97;;;3.44;79.60
7662;BME280;30314;48.184;11.510;2023-02-25T14:46:35;94775.59;;;3.35;83.90
7662;BME280;30314;48.184;11.510;2023-02-25T14:52:25;94760.94;;;3.40;85.37
7662;BME280;30314;48.184;11.510;2023-02-25T14:55:32;94763.03;;;3.37;85.18
7662;BME280;30314;48.184;11.510;2023-02-25T15:03:53;94766.16;;;3.34;84.96
7662;BME280;30314;48.184;11.510;2023-02-25T15:09:30;94769.00;;;3.48;83.88
7662;BME280;30314;48.184;11.510;2023-02-25T15:12:31;94755.22;;;3.32;85.39
7662;BME280;30314;48.184;11.510;2023-02-25T15:18:25;94766.72;;;3.31;78.63
7662;BME280;30314;48.184;11.510;2023-02-25T15:20:54;94760.00;;;3.09;79.83
7662;BME280;30314;48.184;11.510;2023-02-25T15:23:40;94775.09;;;3.18;81.01
7662;BME280;30314;48.184;11.510;2023-02-25T15:26:24;94781.34;;;3.17;86.09
7662;BME280;30314;48.184;11.510;2023-02-25T15:28:54;94792.03;;;3.15;87.23
7662;BME280;30314;48.184;11.510;2023-02-25T15:31:31;94775.16;;;2.97;78.96
7662;BME280;30314;48.184;11.510;2023-02-25T15:34:32;94785.81;;;3.11;79.88
7662;BME280;30314;48.184;11.510;2023-02-25T15:42:48;94797.03;;;3.06;84.96
7662;BME280;30314;48.184;11.510;2023-02-25T15:55:47;94792.84;;;3.05;83.84
7662;BME280;30314;48.184;11.510;2023-02-25T16:00:58;94785.03;;;2.95;80.51
7662;BME280;30314;48.184;11.510;2023-02-25T16:06:05;94777.22;;;2.79;81.77
7662;BME280;30314;48.184;11.510;2023-02-25T16:08:43;94800.19;;;2.83;84.30
7662;BME280;30314;48.184;11.510;2023-02-25T16:11:22;94802.78;;;2.88;83.35